createdAt,value
2022-12-12T00:01:50.227Z,1.90
2022-12-12T00:04:17.014Z,1.90
2022-12-12T00:06:43.712Z,1.90
2022-12-12T00:09:10.989Z,1.90
2022-12-12T00:11:37.851Z,1.90
2022-12-12T00:14:05.121Z,1.90
2022-12-12T00:16:32.282Z,1.80
2022-12-12T00:18:59.527Z,1.80
2022-12-12T00:21:29.126Z,1.70
2022-12-12T00:23:56.735Z,1.70
2022-12-12T00:26:33.940Z,1.70
2022-12-12T00:29:01.727Z,1.70
2022-12-12T00:31:28.911Z,1.70
2022-12-12T00:33:56.340Z,1.60
2022-12-12T00:36:25.808Z,1.60
2022-12-12T00:38:53.539Z,1.60
2022-12-12T00:41:20.773Z,1.60
2022-12-12T00:43:48.250Z,1.60
2022-12-12T00:46:17.076Z,1.60
2022-12-12T00:48:44.360Z,1.50
2022-12-12T00:51:15.453Z,1.50
2022-12-12T00:53:42.212Z,1.40
2022-12-12T00:56:08.927Z,1.40
2022-12-12T00:58:35.789Z,1.30
2022-12-12T01:01:07.675Z,1.30
2022-12-12T01:03:36.534Z,1.20
2022-12-12T01:06:04.350Z,1.10
2022-12-12T01:08:31.095Z,1.00
2022-12-12T01:10:58.006Z,0.90
2022-12-12T01:13:25.063Z,0.90
2022-12-12T01:15:52.472Z,0.70
2022-12-12T01:18:20.107Z,0.60
2022-12-12T01:20:47.054Z,0.40
2022-12-12T01:23:14.132Z,0.30
2022-12-12T01:25:41.060Z,0.20
2022-12-12T01:28:07.894Z,0.10
2022-12-12T01:30:34.872Z,0.00
2022-12-12T01:33:01.705Z,-0.20
2022-12-12T01:35:28.517Z,-0.30
2022-12-12T01:37:55.322Z,-0.30
2022-12-12T01:40:24.765Z,-0.40
2022-12-12T01:42:51.761Z,-0.40
2022-12-12T01:45:55.905Z,-0.50
2022-12-12T01:48:29.071Z,-0.60
2022-12-12T01:50:58.975Z,-0.70
2022-12-12T01:53:29.544Z,-0.70
2022-12-12T01:55:57.510Z,-0.80
2022-12-12T01:58:25.096Z,-0.90
2022-12-12T02:00:52.412Z,-1.00
2022-12-12T02:03:19.206Z,-1.00
2022-12-12T02:05:53.373Z,-1.10
2022-12-12T02:08:21.840Z,-1.10
2022-12-12T02:10:48.856Z,-1.20
2022-12-12T02:13:19.785Z,-1.20
2022-12-12T02:16:01.503Z,-1.30
2022-12-12T02:19:01.495Z,-1.30
2022-12-12T02:21:46.382Z,-1.40
2022-12-12T02:24:31.187Z,-1.40
2022-12-12T02:27:26.847Z,-1.50
2022-12-12T02:29:56.320Z,-1.50
2022-12-12T02:32:41.055Z,-1.50
2022-12-12T02:35:32.583Z,-1.60
2022-12-12T02:38:13.299Z,-1.60
2022-12-12T02:40:56.328Z,-1.60
2022-12-12T02:43:42.212Z,-1.70
2022-12-12T02:46:16.366Z,-1.70
2022-12-12T02:48:48.471Z,-1.70
2022-12-12T02:51:17.888Z,-1.80
2022-12-12T02:53:45.105Z,-1.80
2022-12-12T02:56:43.139Z,-1.80
2022-12-12T02:59:12.739Z,-1.80
2022-12-12T03:01:53.657Z,-1.90
2022-12-12T03:04:42.055Z,-1.90
2022-12-12T03:07:47.451Z,-2.00
2022-12-12T03:10:35.222Z,-2.00
2022-12-12T03:13:39.621Z,-2.00
2022-12-12T03:16:19.153Z,-2.10
2022-12-12T03:18:45.865Z,-2.10
2022-12-12T03:21:35.524Z,-2.10
2022-12-12T03:24:28.784Z,-2.10
2022-12-12T03:27:01.396Z,-2.10
2022-12-12T03:29:40.052Z,-2.00
2022-12-12T03:32:17.199Z,-2.00
2022-12-12T03:34:49.892Z,-2.00
2022-12-12T03:37:27.751Z,-2.00
2022-12-12T03:40:09.928Z,-2.00
2022-12-12T03:42:42.277Z,-2.00
2022-12-12T03:45:28.409Z,-2.00
2022-12-12T03:48:08.363Z,-2.00
2022-12-12T03:51:05.146Z,-2.00
2022-12-12T03:53:37.841Z,-2.00
2022-12-12T03:56:27.083Z,-2.10
2022-12-12T03:58:59.804Z,-2.20
2022-12-12T04:01:35.479Z,-2.30
2022-12-12T04:04:15.647Z,-2.30
2022-12-12T04:06:50.383Z,-2.40
2022-12-12T04:09:38.272Z,-2.40
2022-12-12T04:12:52.120Z,-2.50
2022-12-12T04:15:48.400Z,-2.50
2022-12-12T04:18:47.226Z,-2.60
2022-12-12T04:21:58.008Z,-2.70
2022-12-12T04:24:30.319Z,-2.70
2022-12-12T04:27:02.667Z,-2.70
2022-12-12T04:29:46.316Z,-2.80
2022-12-12T04:32:21.734Z,-2.80
2022-12-12T04:34:48.405Z,-2.80
2022-12-12T04:37:19.944Z,-2.80
2022-12-12T04:39:50.284Z,-2.80
2022-12-12T04:42:21.821Z,-2.80
2022-12-12T04:44:52.536Z,-2.90
2022-12-12T04:47:20.239Z,-2.90
2022-12-12T04:49:49.115Z,-2.90
2022-12-12T04:52:19.351Z,-3.00
2022-12-12T04:55:17.487Z,-3.00
2022-12-12T04:57:49.752Z,-3.00
2022-12-12T05:00:17.109Z,-3.00
2022-12-12T05:03:30.247Z,-3.00
2022-12-12T05:06:05.291Z,-3.00
2022-12-12T05:08:42.696Z,-3.00
2022-12-12T05:11:09.920Z,-3.10
2022-12-12T05:13:39.164Z,-3.10
2022-12-12T05:16:40.825Z,-3.10
2022-12-12T05:19:07.643Z,-3.20
2022-12-12T05:21:34.768Z,-3.20
2022-12-12T05:24:01.571Z,-3.20
2022-12-12T05:26:31.395Z,-3.30
2022-12-12T05:29:03.698Z,-3.30
2022-12-12T05:31:33.602Z,-3.30
2022-12-12T05:34:00.429Z,-3.40
2022-12-12T05:36:27.133Z,-3.40
2022-12-12T05:38:53.915Z,-3.40
2022-12-12T05:41:20.737Z,-3.40
2022-12-12T05:43:47.500Z,-3.50
2022-12-12T05:46:14.467Z,-3.50
2022-12-12T05:49:41.360Z,-3.50
2022-12-12T05:52:08.115Z,-3.50
2022-12-12T05:54:34.869Z,-3.50
2022-12-12T05:57:01.644Z,-3.50
2022-12-12T05:59:28.576Z,-3.60
2022-12-12T06:01:55.425Z,-3.60
2022-12-12T06:04:22.335Z,-3.60
2022-12-12T06:06:49.241Z,-3.60
2022-12-12T06:09:15.934Z,-3.60
2022-12-12T06:11:42.808Z,-3.60
2022-12-12T06:14:09.715Z,-3.60
2022-12-12T06:16:36.717Z,-3.60
2022-12-12T06:19:04.052Z,-3.60
2022-12-12T06:21:30.829Z,-3.70
2022-12-12T06:23:57.564Z,-3.70
2022-12-12T06:26:24.298Z,-3.70
2022-12-12T06:28:51.168Z,-3.70
2022-12-12T06:31:18.471Z,-3.70
2022-12-12T06:33:45.463Z,-3.70
2022-12-12T06:36:23.739Z,-3.80
2022-12-12T06:38:55.708Z,-3.80
2022-12-12T06:41:23.575Z,-3.80
2022-12-12T06:43:51.013Z,-3.80
2022-12-12T06:46:23.334Z,-3.80
2022-12-12T06:48:51.321Z,-3.90
2022-12-12T06:51:26.921Z,-3.90
2022-12-12T06:53:54.044Z,-3.90
2022-12-12T06:56:23.721Z,-3.90
2022-12-12T06:58:51.024Z,-3.90
2022-12-12T07:01:19.500Z,-3.90
2022-12-12T07:03:47.668Z,-3.90
2022-12-12T07:06:14.573Z,-3.90
2022-12-12T07:08:41.785Z,-3.90
2022-12-12T07:11:13.277Z,-3.90
2022-12-12T07:13:40.096Z,-3.90
2022-12-12T07:16:07.778Z,-4.00
2022-12-12T07:18:35.460Z,-4.00
2022-12-12T07:21:11.183Z,-4.00
2022-12-12T07:23:38.996Z,-4.00
2022-12-12T07:26:17.430Z,-4.00
2022-12-12T07:28:44.724Z,-4.10
2022-12-12T07:31:14.516Z,-4.00
2022-12-12T07:33:44.480Z,-4.10
2022-12-12T07:36:13.057Z,-4.10
2022-12-12T07:38:39.839Z,-4.00
2022-12-12T07:41:18.792Z,-4.10
2022-12-12T07:43:46.518Z,-4.10
2022-12-12T07:46:24.296Z,-4.10
2022-12-12T07:48:52.575Z,-4.10
2022-12-12T07:51:20.049Z,-4.10
2022-12-12T07:53:46.915Z,-4.10
2022-12-12T07:56:15.597Z,-4.10
2022-12-12T07:58:42.464Z,-4.00
2022-12-12T08:01:14.687Z,-4.00
2022-12-12T08:03:42.997Z,-4.00
2022-12-12T08:06:09.859Z,-4.00
2022-12-12T08:08:36.796Z,-3.90
2022-12-12T08:11:11.922Z,-3.90
2022-12-12T08:13:39.604Z,-3.90
2022-12-12T08:16:09.393Z,-3.80
2022-12-12T08:18:36.348Z,-3.80
2022-12-12T08:21:08.278Z,-3.70
2022-12-12T08:23:34.989Z,-3.70
2022-12-12T08:26:07.276Z,-3.60
2022-12-12T08:28:34.696Z,-3.60
2022-12-12T08:31:01.624Z,-3.50
2022-12-12T08:33:28.757Z,-3.40
2022-12-12T08:35:55.468Z,-3.40
2022-12-12T08:38:22.240Z,-3.40
2022-12-12T08:40:48.947Z,-3.30
2022-12-12T08:43:15.992Z,-3.30
2022-12-12T08:45:42.696Z,-3.20
2022-12-12T08:48:12.077Z,-3.10
2022-12-12T08:50:41.129Z,-3.00
2022-12-12T08:53:08.141Z,-2.90
2022-12-12T08:55:36.086Z,-2.80
2022-12-12T08:58:02.885Z,-2.70
2022-12-12T09:00:29.728Z,-2.60
2022-12-12T09:02:56.494Z,-2.50
2022-12-12T09:05:23.375Z,-2.50
2022-12-12T09:07:50.697Z,-2.40
2022-12-12T09:10:17.817Z,-2.30
2022-12-12T09:12:44.772Z,-2.20
2022-12-12T09:15:12.013Z,-2.20
2022-12-12T09:17:39.339Z,-2.10
2022-12-12T09:20:06.969Z,-2.10
2022-12-12T09:22:33.823Z,-2.00
2022-12-12T09:25:00.682Z,-1.90
2022-12-12T09:27:27.707Z,-1.90
2022-12-12T09:29:54.557Z,-1.80
2022-12-12T09:32:24.584Z,-1.80
2022-12-12T09:34:51.836Z,-1.80
2022-12-12T09:37:18.643Z,-1.80
2022-12-12T09:39:45.331Z,-1.70
2022-12-12T09:42:33.255Z,-1.70
2022-12-12T09:45:05.762Z,-1.60
2022-12-12T09:47:53.935Z,-1.60
2022-12-12T09:50:27.060Z,-1.50
2022-12-12T09:52:57.776Z,-1.50
2022-12-12T09:55:38.907Z,-1.40
2022-12-12T09:58:22.199Z,-1.30
2022-12-12T10:01:24.857Z,-1.20
2022-12-12T10:03:57.302Z,-1.20
2022-12-12T10:06:37.237Z,-1.20
2022-12-12T10:09:25.238Z,-1.10
2022-12-12T10:11:55.459Z,-1.00
2022-12-12T10:14:35.930Z,-1.00
2022-12-12T10:17:11.959Z,-0.90
2022-12-12T10:20:00.354Z,-0.90
2022-12-12T10:22:48.808Z,-0.80
2022-12-12T10:25:22.946Z,-0.80
2022-12-12T10:28:14.706Z,-0.70
2022-12-12T10:31:12.145Z,-0.70
2022-12-12T10:33:48.277Z,-0.70
2022-12-12T10:36:52.486Z,-0.60
2022-12-12T10:39:39.185Z,-0.50
2022-12-12T10:42:14.299Z,-0.50
2022-12-12T10:44:47.453Z,-0.50
2022-12-12T10:47:14.554Z,-0.40
2022-12-12T10:49:42.138Z,-0.40
2022-12-12T10:52:22.053Z,-0.30
2022-12-12T10:54:52.675Z,-0.30
2022-12-12T10:57:26.165Z,-0.30
2022-12-12T10:59:57.918Z,-0.20
2022-12-12T11:02:32.821Z,-0.20
2022-12-12T11:05:06.208Z,-0.10
2022-12-12T11:07:45.037Z,-0.10
2022-12-12T11:10:30.595Z,0.00
2022-12-12T11:13:00.583Z,0.00
2022-12-12T11:15:51.645Z,0.00
2022-12-12T11:18:21.815Z,0.10
2022-12-12T11:20:55.483Z,0.10
2022-12-12T11:23:28.649Z,0.10
2022-12-12T11:26:05.780Z,0.20
2022-12-12T11:28:36.455Z,0.20
2022-12-12T11:31:08.126Z,0.20
2022-12-12T11:33:39.561Z,0.20
2022-12-12T11:36:07.123Z,0.30
2022-12-12T11:38:45.488Z,0.30
2022-12-12T11:41:12.557Z,0.30
2022-12-12T11:43:48.351Z,0.30
2022-12-12T11:46:15.355Z,0.40
2022-12-12T11:48:54.138Z,0.40
2022-12-12T11:51:43.263Z,0.40
2022-12-12T11:54:19.052Z,0.50
2022-12-12T11:57:02.097Z,0.50
2022-12-12T12:00:04.817Z,0.50
2022-12-12T12:03:04.696Z,0.50
2022-12-12T12:05:56.409Z,0.60
2022-12-12T12:08:50.603Z,0.60
2022-12-12T12:11:31.422Z,0.60
2022-12-12T12:13:58.325Z,0.60
2022-12-12T12:16:30.455Z,0.70
2022-12-12T12:19:06.861Z,0.70
2022-12-12T12:22:06.651Z,0.70
2022-12-12T12:24:55.386Z,0.80
2022-12-12T12:27:45.464Z,0.70
2022-12-12T12:30:16.889Z,0.70
2022-12-12T12:33:20.567Z,0.80
2022-12-12T12:36:01.760Z,0.80
2022-12-12T12:39:04.318Z,0.80
2022-12-12T12:41:45.372Z,0.80
2022-12-12T12:44:36.724Z,0.80
2022-12-12T12:47:22.532Z,0.80
2022-12-12T12:50:25.381Z,0.80
2022-12-12T12:52:59.338Z,0.80
2022-12-12T12:55:35.833Z,0.80
2022-12-12T12:58:06.104Z,0.80
2022-12-12T13:00:35.758Z,0.80
2022-12-12T13:03:12.877Z,0.80
2022-12-12T13:05:49.908Z,0.80
2022-12-12T13:08:22.865Z,0.80
2022-12-12T13:11:02.672Z,0.80
2022-12-12T13:13:33.102Z,0.80
2022-12-12T13:16:06.126Z,0.80
2022-12-12T13:18:45.158Z,0.80
2022-12-12T13:21:40.376Z,0.80
2022-12-12T13:24:13.396Z,0.80
2022-12-12T13:26:57.787Z,0.80
2022-12-12T13:29:30.253Z,0.70
2022-12-12T13:32:24.276Z,0.70
2022-12-12T13:34:56.813Z,0.70
2022-12-12T13:37:24.221Z,0.70
2022-12-12T13:40:06.737Z,0.70
2022-12-12T13:42:55.313Z,0.70
2022-12-12T13:45:37.970Z,0.70
2022-12-12T13:48:04.950Z,0.70
2022-12-12T13:50:34.367Z,0.70
2022-12-12T13:53:21.670Z,0.70
2022-12-12T13:55:48.720Z,0.60
2022-12-12T13:58:20.594Z,0.60
2022-12-12T14:00:47.598Z,0.60
2022-12-12T14:03:14.570Z,0.60
2022-12-12T14:05:48.833Z,0.60
2022-12-12T14:08:15.848Z,0.60
2022-12-12T14:10:51.721Z,0.50
2022-12-12T14:13:24.592Z,0.50
2022-12-12T14:15:57.559Z,0.50
2022-12-12T14:18:30.061Z,0.40
2022-12-12T14:21:04.716Z,0.40
2022-12-12T14:23:35.470Z,0.40
2022-12-12T14:26:22.241Z,0.40
2022-12-12T14:29:18.117Z,0.40
2022-12-12T14:31:56.225Z,0.30
2022-12-12T14:34:44.261Z,0.30
2022-12-12T14:37:32.698Z,0.30
2022-12-12T14:40:18.213Z,0.20
2022-12-12T14:43:15.663Z,0.10
2022-12-12T14:45:49.624Z,0.10
2022-12-12T14:48:21.255Z,0.00
2022-12-12T14:51:12.343Z,0.00
2022-12-12T14:53:39.078Z,-0.10
2022-12-12T14:56:22.180Z,-0.10
2022-12-12T14:59:05.332Z,-0.20
2022-12-12T15:01:33.381Z,-0.20
2022-12-12T15:04:04.138Z,-0.30
2022-12-12T15:06:45.593Z,-0.40
2022-12-12T15:09:20.420Z,-0.50
2022-12-12T15:11:47.872Z,-0.50
2022-12-12T15:14:26.327Z,-0.60
2022-12-12T15:17:28.899Z,-0.70
2022-12-12T15:20:08.507Z,-0.80
2022-12-12T15:22:37.960Z,-0.90
2022-12-12T15:25:16.250Z,-1.00
2022-12-12T15:27:52.157Z,-1.10
2022-12-12T15:30:32.282Z,-1.20
2022-12-12T15:33:04.393Z,-1.30
2022-12-12T15:35:31.924Z,-1.40
2022-12-12T15:38:05.717Z,-1.50
2022-12-12T15:40:37.448Z,-1.60
2022-12-12T15:43:25.688Z,-1.70
2022-12-12T15:46:00.884Z,-1.80
2022-12-12T15:48:27.905Z,-1.90
2022-12-12T15:51:01.888Z,-2.00
2022-12-12T15:53:47.099Z,-2.00
2022-12-12T15:56:15.629Z,-2.10
2022-12-12T15:58:51.617Z,-2.20
2022-12-12T16:01:24.201Z,-2.20
2022-12-12T16:04:04.212Z,-2.30
2022-12-12T16:06:42.506Z,-2.30
2022-12-12T16:09:12.372Z,-2.40
2022-12-12T16:11:52.351Z,-2.40
2022-12-12T16:14:26.811Z,-2.40
2022-12-12T16:17:02.717Z,-2.50
2022-12-12T16:19:41.449Z,-2.60
2022-12-12T16:22:27.322Z,-2.60
2022-12-12T16:24:56.896Z,-2.70
2022-12-12T16:27:23.654Z,-2.70
2022-12-12T16:29:50.512Z,-2.70
2022-12-12T16:32:19.142Z,-2.80
2022-12-12T16:34:46.061Z,-2.80
2022-12-12T16:37:18.093Z,-2.80
2022-12-12T16:39:44.977Z,-2.90
2022-12-12T16:42:20.083Z,-2.90
2022-12-12T16:44:47.300Z,-2.90
2022-12-12T16:47:20.505Z,-3.00
2022-12-12T16:49:47.978Z,-3.00
2022-12-12T16:52:16.912Z,-3.00
2022-12-12T16:54:51.074Z,-3.10
2022-12-12T16:57:20.514Z,-3.10
2022-12-12T16:59:47.212Z,-3.10
2022-12-12T17:02:23.131Z,-3.10
2022-12-12T17:04:50.892Z,-3.10
2022-12-12T17:07:18.000Z,-3.10
2022-12-12T17:09:45.115Z,-3.10
2022-12-12T17:12:13.227Z,-3.10
2022-12-12T17:14:40.241Z,-3.20
2022-12-12T17:17:07.050Z,-3.20
2022-12-12T17:19:33.843Z,-3.20
2022-12-12T17:22:00.871Z,-3.20
2022-12-12T17:24:27.784Z,-3.20
2022-12-12T17:26:54.550Z,-3.20
2022-12-12T17:29:22.429Z,-3.20
2022-12-12T17:31:49.214Z,-3.30
2022-12-12T17:34:16.156Z,-3.30
2022-12-12T17:36:42.992Z,-3.30
2022-12-12T17:39:10.972Z,-3.30
2022-12-12T17:41:37.849Z,-3.40
2022-12-12T17:44:04.684Z,-3.40
2022-12-12T17:46:31.588Z,-3.40
2022-12-12T17:48:59.353Z,-3.40
2022-12-12T17:51:26.160Z,-3.40
2022-12-12T17:53:53.056Z,-3.50
2022-12-12T17:56:25.183Z,-3.40
2022-12-12T17:58:52.536Z,-3.40
2022-12-12T18:01:25.154Z,-3.40
2022-12-12T18:03:52.397Z,-3.50
2022-12-12T18:06:20.307Z,-3.50
2022-12-12T18:08:47.393Z,-3.50
2022-12-12T18:11:19.761Z,-3.50
2022-12-12T18:13:49.638Z,-3.50
2022-12-12T18:16:18.314Z,-3.50
2022-12-12T18:18:45.373Z,-3.60
2022-12-12T18:21:35.972Z,-3.60
2022-12-12T18:24:03.979Z,-3.60
2022-12-12T18:26:30.696Z,-3.70
2022-12-12T18:29:00.155Z,-3.60
2022-12-12T18:31:27.706Z,-3.70
2022-12-12T18:33:54.890Z,-3.70
2022-12-12T18:36:24.499Z,-3.70
2022-12-12T18:38:51.420Z,-3.70
2022-12-12T18:41:18.636Z,-3.70
2022-12-12T18:43:45.618Z,-3.70
2022-12-12T18:46:15.635Z,-3.70
2022-12-12T18:48:44.663Z,-3.70
2022-12-12T18:51:18.568Z,-3.70
2022-12-12T18:53:46.256Z,-3.70
2022-12-12T18:56:17.045Z,-3.70
2022-12-12T18:58:44.827Z,-3.70
2022-12-12T19:01:14.480Z,-3.70
2022-12-12T19:03:43.374Z,-3.80
2022-12-12T19:06:13.232Z,-3.80
2022-12-12T19:08:40.313Z,-3.80
2022-12-12T19:11:07.911Z,-3.80
2022-12-12T19:13:35.062Z,-3.80
2022-12-12T19:16:10.848Z,-3.80
2022-12-12T19:18:38.719Z,-3.80
2022-12-12T19:21:14.744Z,-3.80
2022-12-12T19:23:42.180Z,-3.80
2022-12-12T19:26:12.112Z,-3.80
2022-12-12T19:28:39.213Z,-3.80
2022-12-12T19:31:11.557Z,-3.80
2022-12-12T19:33:39.101Z,-3.80
2022-12-12T19:36:14.858Z,-3.80
2022-12-12T19:38:41.720Z,-3.90
2022-12-12T19:41:09.641Z,-3.90
2022-12-12T19:43:36.452Z,-3.90
2022-12-12T19:46:08.906Z,-3.90
2022-12-12T19:48:36.358Z,-4.00
2022-12-12T19:51:12.391Z,-4.00
2022-12-12T19:53:42.901Z,-4.00
2022-12-12T19:56:14.291Z,-4.00
2022-12-12T19:58:41.851Z,-4.00
2022-12-12T20:01:14.853Z,-4.00
2022-12-12T20:03:41.672Z,-4.00
2022-12-12T20:06:12.464Z,-4.10
2022-12-12T20:08:39.309Z,-4.10
2022-12-12T20:11:08.259Z,-4.10
2022-12-12T20:13:35.479Z,-4.10
2022-12-12T20:16:07.761Z,-4.10
2022-12-12T20:18:34.709Z,-4.10
2022-12-12T20:21:04.195Z,-4.10
2022-12-12T20:23:33.475Z,-4.10
2022-12-12T20:26:04.340Z,-4.10
2022-12-12T20:28:32.192Z,-4.10
2022-12-12T20:31:05.954Z,-4.00
2022-12-12T20:33:33.332Z,-4.10
2022-12-12T20:36:01.954Z,-4.10
2022-12-12T20:38:30.840Z,-4.10
2022-12-12T20:40:58.363Z,-4.10
2022-12-12T20:43:25.527Z,-4.10
2022-12-12T20:45:52.346Z,-4.10
2022-12-12T20:48:19.176Z,-4.10
2022-12-12T20:50:46.178Z,-4.10
2022-12-12T20:53:14.475Z,-4.10
2022-12-12T20:55:41.240Z,-4.10
2022-12-12T20:58:08.192Z,-4.10
2022-12-12T21:00:36.583Z,-4.10
2022-12-12T21:03:03.477Z,-4.10
2022-12-12T21:05:30.399Z,-4.20
2022-12-12T21:07:57.161Z,-4.20
2022-12-12T21:10:24.118Z,-4.20
2022-12-12T21:12:50.876Z,-4.20
2022-12-12T21:15:18.108Z,-4.20
2022-12-12T21:17:45.419Z,-4.20
2022-12-12T21:20:12.117Z,-4.30
2022-12-12T21:22:38.849Z,-4.30
2022-12-12T21:25:06.067Z,-4.30
2022-12-12T21:27:33.289Z,-4.30
2022-12-12T21:30:00.057Z,-4.30
2022-12-12T21:32:26.780Z,-4.30
2022-12-12T21:34:53.528Z,-4.40
2022-12-12T21:37:20.197Z,-4.40
2022-12-12T21:39:47.145Z,-4.40
2022-12-12T21:42:13.919Z,-4.40
2022-12-12T21:44:45.543Z,-4.40
2022-12-12T21:47:12.628Z,-4.50
2022-12-12T21:49:39.404Z,-4.50
2022-12-12T21:52:10.133Z,-4.50
2022-12-12T21:54:36.985Z,-4.50
2022-12-12T21:57:04.401Z,-4.50
2022-12-12T21:59:31.193Z,-4.50
2022-12-12T22:02:00.074Z,-4.60
2022-12-12T22:04:27.821Z,-4.60
2022-12-12T22:06:55.058Z,-4.60
2022-12-12T22:09:21.825Z,-4.60
2022-12-12T22:11:52.204Z,-4.60
2022-12-12T22:14:30.478Z,-4.70
2022-12-12T22:16:57.160Z,-4.70
2022-12-12T22:19:23.834Z,-4.70
2022-12-12T22:21:50.492Z,-4.70
2022-12-12T22:24:17.948Z,-4.70
2022-12-12T22:26:50.005Z,-4.80
2022-12-12T22:29:19.020Z,-4.80
2022-12-12T22:31:46.179Z,-4.80
2022-12-12T22:34:19.527Z,-4.80
2022-12-12T22:36:47.219Z,-4.70
2022-12-12T22:39:21.696Z,-4.70
2022-12-12T22:41:50.053Z,-4.70
2022-12-12T22:44:18.744Z,-4.70
2022-12-12T22:46:47.024Z,-4.70
2022-12-12T22:49:16.611Z,-4.70
2022-12-12T22:51:44.377Z,-4.70
2022-12-12T22:54:12.290Z,-4.70
2022-12-12T22:56:40.204Z,-4.70
2022-12-12T22:59:07.520Z,-4.80
2022-12-12T23:01:35.312Z,-4.80
2022-12-12T23:04:02.467Z,-4.80
2022-12-12T23:06:32.506Z,-4.80
2022-12-12T23:09:08.123Z,-4.80
2022-12-12T23:11:36.638Z,-4.80
2022-12-12T23:14:11.207Z,-4.80
2022-12-12T23:16:37.941Z,-4.80
2022-12-12T23:19:06.032Z,-4.80
2022-12-12T23:21:34.087Z,-4.80
2022-12-12T23:24:01.076Z,-4.80
2022-12-12T23:26:30.255Z,-4.80
2022-12-12T23:28:58.537Z,-4.80
2022-12-12T23:31:31.678Z,-4.80
2022-12-12T23:34:01.599Z,-4.80
2022-12-12T23:36:29.480Z,-4.70
2022-12-12T23:39:02.352Z,-4.70
2022-12-12T23:41:29.629Z,-4.70
2022-12-12T23:43:57.012Z,-4.80
2022-12-12T23:46:33.776Z,-4.80
2022-12-12T23:49:04.976Z,-4.80
2022-12-12T23:51:34.287Z,-4.80
2022-12-12T23:54:02.859Z,-4.80
2022-12-12T23:56:30.360Z,-4.80
2022-12-12T23:58:58.283Z,-4.80
